createdAt,value
2023-04-11T00:04:39.030Z,73.25
2023-04-11T00:09:40.791Z,72.66
2023-04-11T00:14:46.234Z,72.84
2023-04-11T00:19:48.505Z,73.96
2023-04-11T00:24:50.545Z,73.71
2023-04-11T00:29:52.866Z,75.10
2023-04-11T00:34:55.236Z,73.52
2023-04-11T00:39:56.905Z,73.77
2023-04-11T00:44:58.238Z,74.24
2023-04-11T00:49:59.719Z,75.07
2023-04-11T00:55:04.289Z,75.28
2023-04-11T01:00:09.752Z,74.88
2023-04-11T01:05:18.034Z,74.23
2023-04-11T01:10:19.519Z,73.70
2023-04-11T01:15:21.407Z,73.84
2023-04-11T01:20:22.907Z,73.84
2023-04-11T01:25:24.973Z,72.14
2023-04-11T01:30:26.542Z,71.53
2023-04-11T01:35:28.144Z,71.54
2023-04-11T01:40:31.349Z,73.83
2023-04-11T01:45:33.001Z,71.37
2023-04-11T01:50:34.693Z,71.23
2023-04-11T01:55:36.126Z,72.29
2023-04-11T02:00:38.425Z,68.04
2023-04-11T02:05:44.628Z,70.17
2023-04-11T02:10:51.390Z,70.47
2023-04-11T02:16:10.407Z,70.02
2023-04-11T02:21:17.468Z,70.31
2023-04-11T02:26:24.907Z,71.17
2023-04-11T02:31:27.677Z,71.85
2023-04-11T02:36:30.164Z,73.09
2023-04-11T02:41:34.913Z,72.28
2023-04-11T02:46:36.506Z,72.90
2023-04-11T02:51:37.968Z,71.80
2023-04-11T02:56:39.364Z,71.98
2023-04-11T03:01:41.629Z,72.39
2023-04-11T03:06:43.112Z,72.63
2023-04-11T03:11:46.927Z,74.14
2023-04-11T03:16:48.828Z,74.65
2023-04-11T03:21:50.421Z,75.57
2023-04-11T03:26:52.004Z,76.11
2023-04-11T03:31:53.347Z,77.09
2023-04-11T03:36:54.868Z,77.31
2023-04-11T03:41:56.257Z,76.52
2023-04-11T03:46:57.738Z,76.64
2023-04-11T03:51:59.287Z,76.61
2023-04-11T03:57:01.060Z,74.77
2023-04-11T04:02:02.644Z,74.86
2023-04-11T04:07:04.142Z,74.95
2023-04-11T04:12:05.788Z,75.26
2023-04-11T04:17:08.228Z,74.62
2023-04-11T04:22:17.456Z,74.53
2023-04-11T04:27:18.874Z,75.05
2023-04-11T04:32:23.886Z,75.95
2023-04-11T04:37:25.917Z,77.12
2023-04-11T04:42:29.110Z,78.04
2023-04-11T04:47:33.389Z,77.48
2023-04-11T04:52:34.965Z,78.00
2023-04-11T04:57:36.354Z,76.94
2023-04-11T05:02:38.093Z,76.73
2023-04-11T05:07:40.316Z,75.53
2023-04-11T05:12:41.742Z,75.51
2023-04-11T05:17:43.182Z,74.75
2023-04-11T05:22:44.604Z,75.01
2023-04-11T05:27:46.078Z,75.21
2023-04-11T05:32:47.737Z,75.55
2023-04-11T05:37:49.263Z,74.80
2023-04-11T05:42:51.016Z,74.52
2023-04-11T05:47:52.433Z,73.94
2023-04-11T05:52:53.800Z,73.77
2023-04-11T05:57:55.436Z,73.93
2023-04-11T06:02:57.538Z,73.61
2023-04-11T06:07:59.910Z,72.19
2023-04-11T06:13:01.690Z,72.72
2023-04-11T06:18:03.355Z,71.53
2023-04-11T06:23:04.903Z,70.19
2023-04-11T06:28:06.541Z,69.99
2023-04-11T06:33:07.941Z,69.12
2023-04-11T06:38:09.342Z,69.07
2023-04-11T06:43:11.223Z,67.42
2023-04-11T06:48:13.743Z,67.71
2023-04-11T06:53:15.201Z,66.43
2023-04-11T06:58:16.941Z,64.27
2023-04-11T07:03:19.801Z,62.61
2023-04-11T07:08:21.434Z,62.41
2023-04-11T07:13:22.799Z,62.39
2023-04-11T07:18:25.867Z,61.76
2023-04-11T07:23:28.579Z,60.23
2023-04-11T07:28:31.245Z,60.38
2023-04-11T07:33:32.582Z,58.63
2023-04-11T07:38:34.361Z,57.10
2023-04-11T07:43:36.310Z,56.81
2023-04-11T07:48:37.638Z,55.85
2023-04-11T07:53:39.018Z,56.00
2023-04-11T07:58:41.324Z,55.20
2023-04-11T08:03:43.161Z,53.77
2023-04-11T08:08:45.903Z,53.18
2023-04-11T08:13:47.401Z,53.20
2023-04-11T08:18:49.050Z,50.88
2023-04-11T08:23:53.268Z,52.59
2023-04-11T08:28:54.674Z,50.89
2023-04-11T08:33:59.147Z,51.80
2023-04-11T08:39:01.903Z,51.09
2023-04-11T08:44:04.095Z,51.17
2023-04-11T08:49:05.479Z,50.75
2023-04-11T08:54:07.660Z,49.70
2023-04-11T08:59:09.035Z,49.52
2023-04-11T09:04:11.416Z,48.89
2023-04-11T09:09:29.080Z,48.31
2023-04-11T09:14:31.708Z,47.39
2023-04-11T09:19:35.089Z,46.55
2023-04-11T09:24:37.856Z,45.57
2023-04-11T09:29:48.090Z,45.39
2023-04-11T09:34:49.634Z,45.92
2023-04-11T09:39:59.602Z,45.34
2023-04-11T09:45:02.156Z,44.29
2023-04-11T09:50:03.651Z,43.36
2023-04-11T09:55:08.339Z,42.88
2023-04-11T10:00:17.123Z,41.70
2023-04-11T10:05:20.164Z,41.68
2023-04-11T10:10:23.722Z,40.16
2023-04-11T10:15:25.143Z,40.85
2023-04-11T10:20:36.002Z,38.51
2023-04-11T10:25:59.052Z,34.71
2023-04-11T10:31:06.995Z,35.93
2023-04-11T10:36:12.272Z,36.88
2023-04-11T10:41:16.912Z,38.58
2023-04-11T10:46:22.910Z,36.67
2023-04-11T10:51:26.783Z,31.38
2023-04-11T10:56:40.445Z,26.22
2023-04-11T11:01:48.990Z,22.83
2023-04-11T11:06:57.392Z,21.06
2023-04-11T11:12:15.229Z,19.89
2023-04-11T11:17:17.110Z,23.11
2023-04-11T11:22:25.655Z,26.99
2023-04-11T11:27:27.279Z,27.94
2023-04-11T11:32:29.005Z,23.48
2023-04-11T11:37:30.795Z,21.62
2023-04-11T11:42:32.201Z,20.39
2023-04-11T11:47:42.258Z,16.81
2023-04-11T11:52:44.676Z,18.09
2023-04-11T11:57:47.559Z,18.69
2023-04-11T12:02:52.366Z,19.44
2023-04-11T12:07:55.527Z,17.63
2023-04-11T12:12:57.040Z,20.80
2023-04-11T12:17:58.410Z,25.22
2023-04-11T12:22:59.797Z,25.11
2023-04-11T12:28:01.238Z,19.89
2023-04-11T12:33:03.138Z,19.95
2023-04-11T12:38:04.892Z,22.04
2023-04-11T12:43:06.344Z,22.28
2023-04-11T12:48:08.191Z,24.00
2023-04-11T12:53:10.345Z,23.00
2023-04-11T12:58:11.830Z,24.78
2023-04-11T13:03:13.415Z,25.13
2023-04-11T13:08:15.470Z,26.69
2023-04-11T13:13:18.623Z,27.06
2023-04-11T13:18:20.408Z,27.86
2023-04-11T13:23:21.781Z,28.83
2023-04-11T13:28:23.581Z,28.54
2023-04-11T13:33:24.952Z,27.62
2023-04-11T13:38:26.282Z,27.39
2023-04-11T13:43:28.496Z,26.96
2023-04-11T13:48:29.916Z,27.28
2023-04-11T13:53:31.295Z,27.14
2023-04-11T13:58:32.920Z,25.87
2023-04-11T14:03:34.559Z,26.43
2023-04-11T14:08:36.854Z,26.78
2023-04-11T14:13:38.271Z,27.77
2023-04-11T14:18:39.629Z,27.85
2023-04-11T14:23:41.880Z,28.24
2023-04-11T14:28:43.241Z,31.04
2023-04-11T14:33:44.578Z,29.84
2023-04-11T14:38:46.108Z,30.33
2023-04-11T14:43:48.426Z,31.11
2023-04-11T14:48:49.752Z,29.56
2023-04-11T14:53:55.331Z,26.84
2023-04-11T14:58:57.008Z,28.74
2023-04-11T15:03:58.785Z,30.02
2023-04-11T15:09:01.306Z,30.10
2023-04-11T15:14:02.847Z,30.26
2023-04-11T15:19:04.434Z,32.37
2023-04-11T15:24:07.331Z,31.95
2023-04-11T15:29:13.839Z,33.31
2023-04-11T15:34:15.232Z,32.89
2023-04-11T15:39:17.057Z,33.99
2023-04-11T15:44:18.478Z,33.36
2023-04-11T15:49:19.921Z,32.97
2023-04-11T15:54:21.295Z,32.95
2023-04-11T15:59:24.892Z,33.39
2023-04-11T16:04:27.258Z,33.04
2023-04-11T16:09:28.923Z,32.63
2023-04-11T16:14:30.330Z,32.90
2023-04-11T16:19:31.878Z,32.83
2023-04-11T16:24:33.639Z,33.09
2023-04-11T16:29:35.360Z,33.06
2023-04-11T16:34:36.933Z,33.53
2023-04-11T16:39:38.389Z,33.61
2023-04-11T16:44:39.884Z,33.08
2023-04-11T16:49:46.986Z,33.40
2023-04-11T16:54:48.769Z,32.34
2023-04-11T16:59:50.981Z,32.50
2023-04-11T17:04:52.401Z,32.58
2023-04-11T17:09:53.996Z,33.28
2023-04-11T17:14:56.100Z,33.05
2023-04-11T17:19:57.506Z,33.25
2023-04-11T17:24:59.867Z,33.50
2023-04-11T17:30:02.619Z,33.46
2023-04-11T17:35:07.085Z,34.48
2023-04-11T17:40:15.244Z,33.61
2023-04-11T17:45:18.502Z,34.18
2023-04-11T17:50:20.282Z,34.49
2023-04-11T17:55:21.880Z,35.19
2023-04-11T18:00:23.404Z,35.57
2023-04-11T18:05:32.775Z,36.10
2023-04-11T18:10:34.261Z,36.98
2023-04-11T18:15:36.389Z,36.96
2023-04-11T18:20:38.063Z,37.45
2023-04-11T18:25:39.446Z,37.51
2023-04-11T18:30:41.028Z,38.12
2023-04-11T18:35:42.538Z,37.76
2023-04-11T18:40:44.155Z,38.09
2023-04-11T18:45:48.962Z,38.51
2023-04-11T18:51:00.386Z,39.41
2023-04-11T18:56:03.512Z,38.88
2023-04-11T19:01:14.859Z,39.63
2023-04-11T19:06:18.329Z,39.10
2023-04-11T19:11:19.864Z,39.51
2023-04-11T19:16:21.335Z,39.99
2023-04-11T19:21:23.854Z,40.45
2023-04-11T19:26:28.335Z,41.16
2023-04-11T19:31:32.368Z,41.02
2023-04-11T19:36:33.977Z,41.61
2023-04-11T19:41:35.526Z,41.90
2023-04-11T19:46:36.995Z,42.63
2023-04-11T19:51:39.481Z,42.87
2023-04-11T19:56:45.193Z,43.36
2023-04-11T20:01:46.750Z,42.99
2023-04-11T20:06:50.590Z,43.25
2023-04-11T20:11:52.106Z,42.69
2023-04-11T20:16:54.094Z,43.24
2023-04-11T20:21:55.922Z,42.71
2023-04-11T20:26:57.410Z,42.76
2023-04-11T20:32:01.465Z,42.46
2023-04-11T20:37:04.542Z,42.52
2023-04-11T20:42:10.556Z,42.69
2023-04-11T20:47:11.947Z,42.87
2023-04-11T20:52:13.530Z,42.39
2023-04-11T20:57:14.898Z,42.45
2023-04-11T21:02:17.198Z,41.93
2023-04-11T21:07:22.575Z,42.34
2023-04-11T21:12:23.930Z,42.20
2023-04-11T21:17:25.915Z,42.47
2023-04-11T21:22:27.446Z,42.21
2023-04-11T21:27:28.840Z,42.46
2023-04-11T21:32:30.318Z,42.60
2023-04-11T21:37:31.959Z,42.64
2023-04-11T21:42:33.459Z,42.82
2023-04-11T21:47:35.270Z,42.94
2023-04-11T21:52:36.778Z,43.33
2023-04-11T21:57:38.159Z,43.72
2023-04-11T22:02:40.515Z,43.65
2023-04-11T22:07:48.249Z,43.76
2023-04-11T22:12:49.733Z,44.19
2023-04-11T22:17:56.269Z,44.52
2023-04-11T22:22:57.939Z,44.32
2023-04-11T22:27:59.279Z,44.63
2023-04-11T22:33:01.774Z,44.28
2023-04-11T22:38:03.780Z,44.90
2023-04-11T22:43:05.647Z,44.98
2023-04-11T22:48:07.278Z,44.70
2023-04-11T22:53:13.994Z,44.90
2023-04-11T22:58:15.522Z,44.61
2023-04-11T23:03:18.301Z,44.93
2023-04-11T23:08:19.700Z,45.15
2023-04-11T23:13:21.044Z,45.57
2023-04-11T23:18:22.530Z,45.46
2023-04-11T23:23:24.307Z,45.18
2023-04-11T23:28:25.776Z,45.74
2023-04-11T23:33:27.183Z,45.48
2023-04-11T23:38:28.950Z,45.41
2023-04-11T23:43:30.539Z,45.67
2023-04-11T23:48:32.137Z,45.94
2023-04-11T23:53:34.194Z,46.65
2023-04-11T23:58:35.971Z,47.27
